This is the latest recevied weather packets stored in our database for station/object OE-11073. If no packets are shown the sender has not sent any weather packets the latest 10 day(s).
| Time | Temp. | Humidity | Pressure | Rain* | Wind** | Luminosity | Snow |
|---|---|---|---|---|---|---|---|
| 1788032110 | 15.56° C | 83% | - | 0 mm | - | 0 W/m² | - |
| 1788031510 | 16.11° C | 80% | - | 0 mm | - | 0 W/m² | - |
| 1788030683 | 16.67° C | 78% | - | 0 mm | - | 0 W/m² | - |
| 1788030310 | 17.22° C | 74% | - | 0 mm | - | 0 W/m² | - |
| 1788029710 | 16.67° C | 78% | - | 0 mm | - | 0 W/m² | - |
| 1788028884 | 16.67° C | 81% | - | 0 mm | - | 0 W/m² | - |
| 1788028510 | 17.22° C | 79% | - | 0 mm | - | 0 W/m² | - |
| 1788027910 | 17.78° C | 77% | - | 0 mm | - | 0 W/m² | - |
| 1788027083 | 17.78° C | 78% | - | 0 mm | - | 0 W/m² | - |
| 1788026710 | 18.33° C | 75% | - | 0 mm | - | 8 W/m² | - |
| 1788026110 | 18.89° C | 70% | - | 0 mm | - | 23 W/m² | - |
| 1788025283 | 19.44° C | 70% | - | 0 mm | - | 46 W/m² | - |
| 1788024910 | 20° C | 65% | - | 0 mm | - | 46 W/m² | - |
| 1788024310 | 20° C | 62% | - | 0 mm | - | 46 W/m² | - |
| 1788023483 | 19.44° C | 67% | - | 0 mm | - | 61 W/m² | - |
| 1788023109 | 20° C | 60% | - | 0 mm | - | 69 W/m² | - |
| 1788022510 | 20° C | 60% | - | 0 mm | - | 77 W/m² | - |
| 1788021683 | 20° C | 65% | - | 0 mm | - | 69 W/m² | - |
| 1788021310 | 20.56° C | 66% | - | 0 mm | - | 122 W/m² | - |
| 1788020709 | 20.56° C | 61% | - | 0 mm | - | 130 W/m² | - |
| 1788019883 | 20° C | 67% | - | 0 mm | - | 84 W/m² | - |
| 1788019510 | 20.56° C | 57% | - | 0 mm | - | 61 W/m² | - |
| 1788018910 | 20.56° C | 58% | - | 0 mm | - | 107 W/m² | - |
| 1788018083 | 20.56° C | 57% | - | 0 mm | - | 153 W/m² | - |
| 1788017710 | 21.11° C | 55% | - | 0 mm | - | 230 W/m² | - |
* Rain latest hour (hover to see other rain measurements)
** Current wind speed in m/s (hover to see current wind gust speed)